createdAt,value
2019-01-28T00:01:43.138Z,4.53
2019-01-28T00:04:09.606Z,4.33
2019-01-28T00:06:35.975Z,3.10
2019-01-28T00:09:04.223Z,2.80
2019-01-28T00:11:30.625Z,2.07
2019-01-28T00:13:56.970Z,1.77
2019-01-28T00:16:23.337Z,4.53
2019-01-28T00:18:49.799Z,1.97
2019-01-28T00:21:16.287Z,2.67
2019-01-28T00:23:42.918Z,2.10
2019-01-28T00:26:09.473Z,1.43
2019-01-28T00:28:36.526Z,1.37
2019-01-28T00:31:03.307Z,1.30
2019-01-28T00:33:29.799Z,1.57
2019-01-28T00:35:56.148Z,1.70
2019-01-28T00:38:22.625Z,1.77
2019-01-28T00:40:49.175Z,1.63
2019-01-28T00:43:15.743Z,3.80
2019-01-28T00:45:42.138Z,2.33
2019-01-28T00:48:08.702Z,1.73
2019-01-28T00:50:35.057Z,4.73
2019-01-28T00:53:01.538Z,3.90
2019-01-28T00:55:27.993Z,2.40
2019-01-28T00:57:54.464Z,2.17
2019-01-28T01:00:22.817Z,2.07
2019-01-28T01:02:49.290Z,2.83
2019-01-28T01:05:15.739Z,2.83
2019-01-28T01:07:42.212Z,1.63
2019-01-28T01:10:09.762Z,2.27
2019-01-28T01:12:36.241Z,2.80
2019-01-28T01:15:03.887Z,3.47
2019-01-28T01:17:30.272Z,2.33
2019-01-28T01:19:56.723Z,4.77
2019-01-28T01:22:23.276Z,3.17
2019-01-28T01:24:49.664Z,3.07
2019-01-28T01:27:16.212Z,2.30
2019-01-28T01:29:42.580Z,3.30
2019-01-28T01:32:09.076Z,5.10
2019-01-28T01:34:35.646Z,2.83
2019-01-28T01:37:02.098Z,2.90
2019-01-28T01:39:28.467Z,3.53
2019-01-28T01:41:54.899Z,4.20
2019-01-28T01:44:21.443Z,2.43
2019-01-28T01:46:47.995Z,4.47
2019-01-28T01:49:14.361Z,2.77
2019-01-28T01:51:40.811Z,3.50
2019-01-28T01:54:07.289Z,4.97
2019-01-28T01:56:33.727Z,4.00
2019-01-28T01:59:00.166Z,2.77
2019-01-28T02:01:26.785Z,4.23
2019-01-28T02:03:53.335Z,3.43
2019-01-28T02:06:19.840Z,5.13
2019-01-28T02:08:46.283Z,4.20
2019-01-28T02:11:12.763Z,4.00
2019-01-28T02:13:39.215Z,5.73
2019-01-28T02:16:05.695Z,4.07
2019-01-28T02:18:32.243Z,4.07
2019-01-28T02:20:58.832Z,5.20
2019-01-28T02:23:25.288Z,3.83
2019-01-28T02:25:51.875Z,4.87
2019-01-28T02:28:18.328Z,4.13
2019-01-28T02:30:44.907Z,4.30
2019-01-28T02:33:11.495Z,3.93
2019-01-28T02:35:38.083Z,4.53
2019-01-28T02:38:04.637Z,4.07
2019-01-28T02:40:31.112Z,9.23
2019-01-28T02:42:57.612Z,4.70
2019-01-28T02:45:24.060Z,4.17
2019-01-28T02:47:50.614Z,5.30
2019-01-28T02:50:17.075Z,6.10
2019-01-28T02:52:43.775Z,6.63
2019-01-28T02:55:10.336Z,4.13
2019-01-28T02:57:36.916Z,6.93
2019-01-28T03:00:05.162Z,6.13
2019-01-28T03:02:31.737Z,5.00
2019-01-28T03:04:58.190Z,5.10
2019-01-28T03:07:24.660Z,3.67
2019-01-28T03:09:51.462Z,4.80
2019-01-28T03:12:17.872Z,5.33
2019-01-28T03:14:44.335Z,4.77
2019-01-28T03:17:10.800Z,4.00
2019-01-28T03:19:37.453Z,4.90
2019-01-28T03:22:03.923Z,6.90
2019-01-28T03:24:30.482Z,6.30
2019-01-28T03:26:57.059Z,5.20
2019-01-28T03:29:23.503Z,4.87
2019-01-28T03:31:50.037Z,6.60
2019-01-28T03:34:16.467Z,3.47
2019-01-28T03:36:42.999Z,4.43
2019-01-28T03:39:09.486Z,6.43
2019-01-28T03:41:35.940Z,4.00
2019-01-28T03:44:03.059Z,3.57
2019-01-28T03:46:29.635Z,5.30
2019-01-28T03:48:56.110Z,4.27
2019-01-28T03:51:22.563Z,5.50
2019-01-28T03:53:49.227Z,4.53
2019-01-28T03:56:15.671Z,2.97
2019-01-28T03:58:42.140Z,4.07
2019-01-28T04:01:08.696Z,5.30
2019-01-28T04:03:35.267Z,3.47
2019-01-28T04:06:01.825Z,5.00
2019-01-28T04:08:28.283Z,5.47
2019-01-28T04:10:54.743Z,4.03
2019-01-28T04:13:21.217Z,2.37
2019-01-28T04:15:47.868Z,3.93
2019-01-28T04:18:14.342Z,2.87
2019-01-28T04:20:40.796Z,4.37
2019-01-28T04:23:07.255Z,4.03
2019-01-28T04:25:33.642Z,4.07
2019-01-28T04:28:00.202Z,4.90
2019-01-28T04:30:26.662Z,4.53
2019-01-28T04:32:53.163Z,3.00
2019-01-28T04:35:19.926Z,2.97
2019-01-28T04:37:46.471Z,3.40
2019-01-28T04:40:14.255Z,3.27
2019-01-28T04:42:40.703Z,5.83
2019-01-28T04:45:09.079Z,3.77
2019-01-28T04:47:35.523Z,5.20
2019-01-28T04:50:03.013Z,3.10
2019-01-28T04:52:29.451Z,2.43
2019-01-28T04:54:55.915Z,2.97
2019-01-28T04:57:22.379Z,2.53
2019-01-28T04:59:48.747Z,4.10
2019-01-28T05:02:15.195Z,3.63
2019-01-28T05:04:41.670Z,2.53
2019-01-28T05:07:08.226Z,4.30
2019-01-28T05:09:34.604Z,4.27
2019-01-28T05:12:01.287Z,2.47
2019-01-28T05:14:27.864Z,7.63
2019-01-28T05:16:54.220Z,3.00
2019-01-28T05:19:20.572Z,4.70
2019-01-28T05:21:47.057Z,6.07
2019-01-28T05:24:13.604Z,2.33
2019-01-28T05:26:40.088Z,5.73
2019-01-28T05:29:06.548Z,2.77
2019-01-28T05:31:33.180Z,5.27
2019-01-28T05:33:59.733Z,2.83
2019-01-28T05:36:26.199Z,3.83
2019-01-28T05:38:52.648Z,2.83
2019-01-28T05:41:19.130Z,3.60
2019-01-28T05:43:45.849Z,3.73
2019-01-28T05:46:12.422Z,2.60
2019-01-28T05:48:38.886Z,5.00
2019-01-28T05:51:05.468Z,3.00
2019-01-28T05:53:31.913Z,3.43
2019-01-28T05:55:58.322Z,3.53
2019-01-28T05:58:24.874Z,5.17
2019-01-28T06:00:51.466Z,2.40
2019-01-28T06:03:17.907Z,3.13
2019-01-28T06:05:44.293Z,3.43
2019-01-28T06:08:10.855Z,4.67
2019-01-28T06:10:37.435Z,3.03
2019-01-28T06:13:03.902Z,3.43
2019-01-28T06:15:30.350Z,2.40
2019-01-28T06:17:56.814Z,3.10
2019-01-28T06:20:24.062Z,3.83
2019-01-28T06:22:50.647Z,3.57
2019-01-28T06:25:17.079Z,4.07
2019-01-28T06:27:43.447Z,6.07
2019-01-28T06:30:11.784Z,2.07
2019-01-28T06:32:38.366Z,3.20
2019-01-28T06:35:05.533Z,2.47
2019-01-28T06:37:32.002Z,5.20
2019-01-28T06:39:58.550Z,3.73
2019-01-28T06:42:25.772Z,1.97
2019-01-28T06:44:52.226Z,3.27
2019-01-28T06:47:18.701Z,2.60
2019-01-28T06:49:45.159Z,2.13
2019-01-28T06:52:11.578Z,3.37
2019-01-28T06:54:37.928Z,3.07
2019-01-28T06:57:04.683Z,2.30
2019-01-28T06:59:31.298Z,2.30
2019-01-28T07:01:58.059Z,2.00
2019-01-28T07:04:24.539Z,3.37
2019-01-28T07:06:50.997Z,2.60
2019-01-28T07:09:18.908Z,3.93
2019-01-28T07:11:45.354Z,2.47
2019-01-28T07:14:11.826Z,3.90
2019-01-28T07:16:38.379Z,3.40
2019-01-28T07:19:05.060Z,1.57
2019-01-28T07:21:31.510Z,4.37
2019-01-28T07:23:58.010Z,2.10
2019-01-28T07:26:24.455Z,3.90
2019-01-28T07:28:50.922Z,2.10
2019-01-28T07:31:17.387Z,1.50
2019-01-28T07:33:43.980Z,2.67
2019-01-28T07:36:10.465Z,2.37
2019-01-28T07:38:36.918Z,2.80
2019-01-28T07:41:03.398Z,2.77
2019-01-28T07:43:29.895Z,1.43
2019-01-28T07:45:56.376Z,1.77
2019-01-28T07:48:22.832Z,1.50
2019-01-28T07:50:49.392Z,1.97
2019-01-28T07:53:15.875Z,1.73
2019-01-28T07:55:42.340Z,2.23
2019-01-28T07:58:08.782Z,2.93
2019-01-28T08:00:35.252Z,5.13
2019-01-28T08:03:01.813Z,1.90
2019-01-28T08:05:28.383Z,1.80
2019-01-28T08:07:54.835Z,1.70
2019-01-28T08:10:21.713Z,1.20
2019-01-28T08:12:48.667Z,2.00
2019-01-28T08:15:16.955Z,1.80
2019-01-28T08:17:43.608Z,1.57
2019-01-28T08:20:11.656Z,1.37
2019-01-28T08:22:38.250Z,1.23
2019-01-28T08:25:06.600Z,1.50
2019-01-28T08:27:33.072Z,1.40
2019-01-28T08:29:59.511Z,1.33
2019-01-28T08:32:26.251Z,2.73
2019-01-28T08:34:52.819Z,1.47
2019-01-28T08:37:19.221Z,1.30
2019-01-28T08:39:45.671Z,1.07
2019-01-28T08:42:12.035Z,0.90
2019-01-28T08:44:38.383Z,2.10
2019-01-28T08:47:04.882Z,0.87
2019-01-28T08:49:31.340Z,1.30
2019-01-28T08:51:57.916Z,1.03
2019-01-28T08:54:24.367Z,3.30
2019-01-28T08:56:50.835Z,1.30
2019-01-28T08:59:17.206Z,1.27
2019-01-28T09:01:43.680Z,1.10
2019-01-28T09:04:10.191Z,1.50
2019-01-28T09:06:36.812Z,1.27
2019-01-28T09:09:05.163Z,1.53
2019-01-28T09:11:31.707Z,2.20
2019-01-28T09:13:58.187Z,1.00
2019-01-28T09:16:24.735Z,1.37
2019-01-28T09:18:51.203Z,2.33
2019-01-28T09:21:17.676Z,0.90
2019-01-28T09:23:44.257Z,1.23
2019-01-28T09:26:10.811Z,1.13
2019-01-28T09:28:37.279Z,1.00
2019-01-28T09:31:03.839Z,1.00
2019-01-28T09:33:30.211Z,1.10
2019-01-28T09:35:56.760Z,1.17
2019-01-28T09:38:23.231Z,1.33
2019-01-28T09:40:49.784Z,0.83
2019-01-28T09:43:16.475Z,2.03
2019-01-28T09:45:42.919Z,2.07
2019-01-28T09:48:10.509Z,0.80
2019-01-28T09:50:36.983Z,1.17
2019-01-28T09:53:03.556Z,1.20
2019-01-28T09:55:30.015Z,1.57
2019-01-28T09:57:56.471Z,0.97
2019-01-28T10:00:26.380Z,1.03
2019-01-28T10:02:53.011Z,1.20
2019-01-28T10:05:19.584Z,1.00
2019-01-28T10:07:46.114Z,1.53
2019-01-28T10:10:14.086Z,0.80
2019-01-28T10:12:40.549Z,2.70
2019-01-28T10:15:08.915Z,0.70
2019-01-28T10:17:35.483Z,1.13
2019-01-28T10:20:03.659Z,1.10
2019-01-28T10:22:30.042Z,0.87
2019-01-28T10:24:56.635Z,1.47
2019-01-28T10:27:23.077Z,2.60
2019-01-28T10:29:49.538Z,1.03
2019-01-28T10:32:16.037Z,0.70
2019-01-28T10:34:42.513Z,1.30
2019-01-28T10:37:08.962Z,1.77
2019-01-28T10:39:35.427Z,1.00
2019-01-28T10:42:02.072Z,1.43
2019-01-28T10:44:28.483Z,0.97
2019-01-28T10:46:54.927Z,0.90
2019-01-28T10:49:21.502Z,2.00
2019-01-28T10:51:47.958Z,1.17
2019-01-28T10:54:14.311Z,1.70
2019-01-28T10:56:40.797Z,1.40
2019-01-28T10:59:07.335Z,2.33
2019-01-28T11:01:33.736Z,1.50
2019-01-28T11:04:00.180Z,1.07
2019-01-28T11:06:26.750Z,2.00
2019-01-28T11:08:53.196Z,1.20
2019-01-28T11:11:19.856Z,1.13
2019-01-28T11:13:46.443Z,1.03
2019-01-28T11:16:12.822Z,1.07
2019-01-28T11:18:39.643Z,0.80
2019-01-28T11:21:06.075Z,0.90
2019-01-28T11:23:32.614Z,0.80
2019-01-28T11:25:59.236Z,0.97
2019-01-28T11:28:25.795Z,1.60
2019-01-28T11:30:54.767Z,1.17
2019-01-28T11:33:21.531Z,0.93
2019-01-28T11:35:48.178Z,1.23
2019-01-28T11:38:15.119Z,0.70
2019-01-28T11:40:41.662Z,1.70
2019-01-28T11:43:08.219Z,0.80
2019-01-28T11:45:36.566Z,1.33
2019-01-28T11:48:03.548Z,1.97
2019-01-28T11:50:29.975Z,1.00
2019-01-28T11:52:56.445Z,1.43
2019-01-28T11:55:22.915Z,0.70
2019-01-28T11:57:49.476Z,2.17
2019-01-28T12:00:17.955Z,0.93
2019-01-28T12:02:44.341Z,2.40
2019-01-28T12:05:10.901Z,2.40
2019-01-28T12:07:37.380Z,1.67
2019-01-28T12:10:05.732Z,3.23
2019-01-28T12:12:32.226Z,2.27
2019-01-28T12:14:58.650Z,2.00
2019-01-28T12:17:26.753Z,0.80
2019-01-28T12:19:53.229Z,0.97
2019-01-28T12:22:19.825Z,1.43
2019-01-28T12:24:46.295Z,1.00
2019-01-28T12:27:12.849Z,1.47
2019-01-28T12:29:39.224Z,1.10
2019-01-28T12:32:05.624Z,1.30
2019-01-28T12:34:32.195Z,0.80
2019-01-28T12:36:58.657Z,2.00
2019-01-28T12:39:25.059Z,1.37
2019-01-28T12:41:51.516Z,1.53
2019-01-28T12:44:17.984Z,1.53
2019-01-28T12:46:44.339Z,1.10
2019-01-28T12:49:10.944Z,1.43
2019-01-28T12:51:37.429Z,1.77
2019-01-28T12:54:04.020Z,3.17
2019-01-28T12:56:30.535Z,1.87
2019-01-28T12:58:56.999Z,2.30
2019-01-28T13:01:23.472Z,1.37
2019-01-28T13:03:50.028Z,1.03
2019-01-28T13:06:16.581Z,1.90
2019-01-28T13:08:43.060Z,0.90
2019-01-28T13:11:09.517Z,1.10
2019-01-28T13:13:40.965Z,0.70
2019-01-28T13:16:04.543Z,1.60
2019-01-28T13:18:31.013Z,0.83
2019-01-28T13:20:57.500Z,0.90
2019-01-28T13:23:23.943Z,1.10
2019-01-28T13:25:50.338Z,0.77
2019-01-28T13:28:16.799Z,1.17
2019-01-28T13:30:43.384Z,1.30
2019-01-28T13:33:11.079Z,1.10
2019-01-28T13:35:37.562Z,2.00
2019-01-28T13:38:04.117Z,1.87
2019-01-28T13:40:30.710Z,2.87
2019-01-28T13:42:57.085Z,1.73
2019-01-28T13:45:23.550Z,1.00
2019-01-28T13:47:50.127Z,1.40
2019-01-28T13:50:17.809Z,1.57
2019-01-28T13:52:44.261Z,2.30
2019-01-28T13:55:10.937Z,3.80
2019-01-28T13:57:37.381Z,1.37
2019-01-28T14:00:06.480Z,1.67
2019-01-28T14:02:32.932Z,1.80
2019-01-28T14:04:59.469Z,1.43
2019-01-28T14:07:26.044Z,1.10
2019-01-28T14:09:52.606Z,2.03
2019-01-28T14:12:19.181Z,0.83
2019-01-28T14:14:45.623Z,1.57
2019-01-28T14:17:12.103Z,1.23
2019-01-28T14:19:46.053Z,1.60
2019-01-28T14:22:06.946Z,2.47
2019-01-28T14:24:33.383Z,1.13
2019-01-28T14:26:59.860Z,1.63
2019-01-28T14:29:26.325Z,1.30
2019-01-28T14:31:52.741Z,1.37
2019-01-28T14:34:19.213Z,1.77
2019-01-28T14:36:45.781Z,1.43
2019-01-28T14:39:13.744Z,2.10
2019-01-28T14:41:40.520Z,2.13
2019-01-28T14:44:06.967Z,2.03
2019-01-28T14:46:33.449Z,1.50
2019-01-28T14:48:59.915Z,2.30
2019-01-28T14:51:26.368Z,1.33
2019-01-28T14:53:52.954Z,2.07
2019-01-28T14:56:19.414Z,1.93
2019-01-28T14:58:45.908Z,2.07
2019-01-28T15:01:12.259Z,3.53
2019-01-28T15:03:38.909Z,3.20
2019-01-28T15:06:05.463Z,3.00
2019-01-28T15:08:31.942Z,2.27
2019-01-28T15:10:58.390Z,1.30
2019-01-28T15:13:24.877Z,2.00
2019-01-28T15:15:51.431Z,3.23
2019-01-28T15:18:17.906Z,1.73
2019-01-28T15:20:44.466Z,1.80
2019-01-28T15:23:11.139Z,1.70
2019-01-28T15:25:37.586Z,2.57
2019-01-28T15:28:04.071Z,3.53
2019-01-28T15:30:30.719Z,1.97
2019-01-28T15:32:57.243Z,2.27
2019-01-28T15:35:24.192Z,4.00
2019-01-28T15:37:50.656Z,2.50
2019-01-28T15:40:18.700Z,3.03
2019-01-28T15:42:45.137Z,1.83
2019-01-28T15:45:13.514Z,3.23
2019-01-28T15:47:39.870Z,3.53
2019-01-28T15:50:10.606Z,4.03
2019-01-28T15:52:36.446Z,2.90
2019-01-28T15:55:04.884Z,2.20
2019-01-28T15:57:31.434Z,1.90
2019-01-28T15:59:57.903Z,2.53
2019-01-28T16:02:24.465Z,1.80
2019-01-28T16:04:51.059Z,1.60
2019-01-28T16:07:17.527Z,6.03
2019-01-28T16:09:44.114Z,3.30
2019-01-28T16:12:10.667Z,1.77
2019-01-28T16:14:37.135Z,1.90
2019-01-28T16:17:03.491Z,1.90
2019-01-28T16:19:29.968Z,2.50
2019-01-28T16:21:56.421Z,2.23
2019-01-28T16:24:22.790Z,2.10
2019-01-28T16:26:49.240Z,2.03
2019-01-28T16:29:15.703Z,3.00
2019-01-28T16:31:42.192Z,2.53
2019-01-28T16:34:08.770Z,5.07
2019-01-28T16:36:35.227Z,3.10
2019-01-28T16:39:02.018Z,3.37
2019-01-28T16:41:28.463Z,3.40
2019-01-28T16:43:55.231Z,2.40
2019-01-28T16:46:21.682Z,3.17
2019-01-28T16:48:48.143Z,3.93
2019-01-28T16:51:14.516Z,4.47
2019-01-28T16:53:40.971Z,3.20
2019-01-28T16:56:07.450Z,3.67
2019-01-28T16:58:33.892Z,4.00
2019-01-28T17:01:00.463Z,5.67
2019-01-28T17:03:26.914Z,3.53
2019-01-28T17:05:53.499Z,4.60
2019-01-28T17:08:20.047Z,4.80
2019-01-28T17:10:46.406Z,4.13
2019-01-28T17:13:12.968Z,2.80
2019-01-28T17:15:39.442Z,4.30
2019-01-28T17:18:06.211Z,4.77
2019-01-28T17:20:35.586Z,4.30
2019-01-28T17:23:01.248Z,5.57
2019-01-28T17:25:29.236Z,6.33
2019-01-28T17:27:55.795Z,5.30
2019-01-28T17:30:24.151Z,7.53
2019-01-28T17:32:51.904Z,4.47
2019-01-28T17:35:18.603Z,6.63
2019-01-28T17:37:44.975Z,8.07
2019-01-28T17:40:13.331Z,4.57
2019-01-28T17:42:39.829Z,6.20
2019-01-28T17:45:07.968Z,5.27
2019-01-28T17:47:34.343Z,6.67
2019-01-28T17:50:02.707Z,6.83
2019-01-28T17:52:29.178Z,6.83
2019-01-28T17:54:55.557Z,6.43
2019-01-28T17:57:22.038Z,7.73
2019-01-28T17:59:48.484Z,8.47
2019-01-28T18:02:15.051Z,6.17
2019-01-28T18:04:41.500Z,6.40
2019-01-28T18:07:07.985Z,6.30
2019-01-28T18:09:34.341Z,8.67
2019-01-28T18:12:00.927Z,9.83
2019-01-28T18:14:27.510Z,9.87
2019-01-28T18:16:54.072Z,5.57
2019-01-28T18:19:20.425Z,6.57
2019-01-28T18:21:46.907Z,6.60
2019-01-28T18:24:13.266Z,5.80
2019-01-28T18:26:39.726Z,7.07
2019-01-28T18:29:06.296Z,5.93
2019-01-28T18:31:32.792Z,6.50
2019-01-28T18:33:59.359Z,8.60
2019-01-28T18:36:25.806Z,6.77
2019-01-28T18:38:52.426Z,5.17
2019-01-28T18:41:18.976Z,5.40
2019-01-28T18:43:45.353Z,8.33
2019-01-28T18:46:11.827Z,6.03
2019-01-28T18:48:38.284Z,6.50
2019-01-28T18:51:04.742Z,7.03
2019-01-28T18:53:31.133Z,6.67
2019-01-28T18:55:57.707Z,6.80
2019-01-28T18:58:24.290Z,8.70
2019-01-28T19:00:50.686Z,6.60
2019-01-28T19:03:17.148Z,8.27
2019-01-28T19:05:45.512Z,8.07
2019-01-28T19:08:13.928Z,9.23
2019-01-28T19:10:42.300Z,10.80
2019-01-28T19:13:10.693Z,9.23
2019-01-28T19:15:39.048Z,9.57
2019-01-28T19:18:10.448Z,8.30
2019-01-28T19:20:38.818Z,15.60
2019-01-28T19:23:05.168Z,8.63
2019-01-28T19:25:31.630Z,8.40
2019-01-28T19:27:58.187Z,10.83
2019-01-28T19:30:24.761Z,7.70
2019-01-28T19:32:51.361Z,7.53
2019-01-28T19:35:18.031Z,8.93
2019-01-28T19:37:44.385Z,6.97
2019-01-28T19:40:11.572Z,6.47
2019-01-28T19:42:38.027Z,6.80
2019-01-28T19:45:06.392Z,6.30
2019-01-28T19:47:33.247Z,6.80
2019-01-28T19:49:59.881Z,6.07
2019-01-28T19:52:26.257Z,5.20
2019-01-28T19:54:52.745Z,5.67
2019-01-28T19:57:19.290Z,5.90
2019-01-28T19:59:45.780Z,8.10
2019-01-28T20:02:12.153Z,7.57
2019-01-28T20:04:38.627Z,5.17
2019-01-28T20:07:05.073Z,5.17
2019-01-28T20:09:31.450Z,4.73
2019-01-28T20:11:57.903Z,4.60
2019-01-28T20:14:24.467Z,5.70
2019-01-28T20:16:51.029Z,6.07
2019-01-28T20:19:17.483Z,5.00
2019-01-28T20:21:43.852Z,6.63
2019-01-28T20:24:10.426Z,6.77
2019-01-28T20:26:36.924Z,5.60
2019-01-28T20:29:03.475Z,6.00
2019-01-28T20:31:30.048Z,7.60
2019-01-28T20:33:57.634Z,6.53
2019-01-28T20:36:24.380Z,5.27
2019-01-28T20:38:50.819Z,6.07
2019-01-28T20:41:17.337Z,6.03
2019-01-28T20:43:43.885Z,8.00
2019-01-28T20:46:10.504Z,6.83
2019-01-28T20:48:36.977Z,6.23
2019-01-28T20:51:03.720Z,8.50
2019-01-28T20:53:30.348Z,7.77
2019-01-28T20:55:56.993Z,6.53
2019-01-28T20:58:23.540Z,8.40
2019-01-28T21:00:50.032Z,7.97
2019-01-28T21:03:16.605Z,9.10
2019-01-28T21:05:43.141Z,6.00
2019-01-28T21:08:09.742Z,8.13
2019-01-28T21:10:36.168Z,8.57
2019-01-28T21:13:03.154Z,10.00
2019-01-28T21:15:29.629Z,6.40
2019-01-28T21:17:56.171Z,9.47
2019-01-28T21:20:22.624Z,8.63
2019-01-28T21:22:49.452Z,10.63
2019-01-28T21:25:17.798Z,7.37
2019-01-28T21:27:44.461Z,10.47
2019-01-28T21:30:12.802Z,7.60
2019-01-28T21:32:39.303Z,9.23
2019-01-28T21:35:07.359Z,11.37
2019-01-28T21:37:33.756Z,9.17
2019-01-28T21:40:00.304Z,7.60
2019-01-28T21:42:26.770Z,8.43
2019-01-28T21:44:55.123Z,8.53
2019-01-28T21:47:21.819Z,9.60
2019-01-28T21:49:48.420Z,8.63
2019-01-28T21:52:14.966Z,11.83
2019-01-28T21:54:41.686Z,7.17
2019-01-28T21:57:08.187Z,11.33
2019-01-28T21:59:34.565Z,10.73
2019-01-28T22:02:01.011Z,11.50
2019-01-28T22:04:27.507Z,17.13
2019-01-28T22:06:53.935Z,7.57
2019-01-28T22:09:20.533Z,9.13
2019-01-28T22:11:46.989Z,12.97
2019-01-28T22:14:13.673Z,13.63
2019-01-28T22:16:40.243Z,13.63
2019-01-28T22:19:06.711Z,9.60
2019-01-28T22:21:35.063Z,11.13
2019-01-28T22:24:01.683Z,11.33
2019-01-28T22:26:28.138Z,10.43
2019-01-28T22:28:54.800Z,12.57
2019-01-28T22:31:21.341Z,10.87
2019-01-28T22:33:47.839Z,9.63
2019-01-28T22:36:14.284Z,8.77
2019-01-28T22:38:41.418Z,12.67
2019-01-28T22:41:08.224Z,12.30
2019-01-28T22:43:34.698Z,13.77
2019-01-28T22:46:01.265Z,12.30
2019-01-28T22:48:27.830Z,15.87
2019-01-28T22:50:54.289Z,10.60
2019-01-28T22:53:20.660Z,8.77
2019-01-28T22:55:47.227Z,6.73
2019-01-28T22:58:13.854Z,13.40
2019-01-28T23:00:44.062Z,7.30
2019-01-28T23:03:10.528Z,11.13
2019-01-28T23:05:36.978Z,8.20
2019-01-28T23:08:03.439Z,5.73
2019-01-28T23:10:30.035Z,5.90
2019-01-28T23:12:56.582Z,10.90
2019-01-28T23:15:22.953Z,10.57
2019-01-28T23:17:49.516Z,10.13
2019-01-28T23:20:16.082Z,10.00
2019-01-28T23:22:42.543Z,10.13
2019-01-28T23:25:09.020Z,7.73
2019-01-28T23:27:35.468Z,19.23
2019-01-28T23:30:02.247Z,10.77
2019-01-28T23:32:28.647Z,8.90
2019-01-28T23:34:55.219Z,8.70
2019-01-28T23:37:21.696Z,12.50
2019-01-28T23:39:48.135Z,11.37
2019-01-28T23:42:14.475Z,9.73
2019-01-28T23:44:40.846Z,9.23
2019-01-28T23:47:07.503Z,11.43
2019-01-28T23:49:33.975Z,12.13
2019-01-28T23:52:00.353Z,10.77
2019-01-28T23:54:26.823Z,11.37
2019-01-28T23:56:55.179Z,15.50
2019-01-28T23:59:21.543Z,9.33
